Time;durP1;ratioP1;P1;durP2;ratioP2;P2;SDS_P1;SDS_P2;PMS_P1;PMS_P2;Temp;Humidity;BMP_temperature;BMP_pressure;BME280_temperature;BME280_humidity;BME280_pressure;Samples;Min_cycle;Max_cycle;Signal;HPM_P1;HPM_P2
2021/04/08 00:01:17;;;;;;;6.80;6.07;;;2.50;99.90;;;;;;5092536;28;20580;-68
2021/04/08 00:03:43;;;;;;;9.00;6.07;;;2.50;99.90;;;;;;5096712;28;20259;-69
2021/04/08 00:06:09;;;;;;;6.93;5.87;;;2.40;99.90;;;;;;5095683;28;20433;-68
2021/04/08 00:08:35;;;;;;;9.00;5.80;;;2.40;99.90;;;;;;5092460;28;20434;-68
2021/04/08 00:11:00;;;;;;;7.43;6.30;;;2.40;99.90;;;;;;5092119;28;20688;-68
2021/04/08 00:13:26;;;;;;;8.10;6.50;;;2.40;99.90;;;;;;5099477;28;20199;-68
2021/04/08 00:15:52;;;;;;;7.93;6.83;;;2.30;99.90;;;;;;5098194;28;20710;-69
2021/04/08 00:18:17;;;;;;;8.40;6.40;;;2.40;99.90;;;;;;5111567;28;20172;-69
2021/04/08 00:20:44;;;;;;;7.27;6.47;;;2.40;99.90;;;;;;5111197;28;20278;-68
2021/04/08 00:23:10;;;;;;;7.27;6.57;;;2.30;99.90;;;;;;5100919;28;20175;-68
2021/04/08 00:25:36;;;;;;;8.20;7.40;;;2.20;99.90;;;;;;5105724;28;20443;-68
2021/04/08 00:28:03;;;;;;;7.20;6.50;;;2.20;99.90;;;;;;5096990;28;20499;-68
2021/04/08 00:30:29;;;;;;;9.03;8.00;;;2.10;99.90;;;;;;5096181;28;20453;-68
2021/04/08 00:32:54;;;;;;;10.03;8.00;;;2.10;99.90;;;;;;5099098;28;20426;-68
2021/04/08 00:35:20;;;;;;;8.33;7.63;;;2.10;99.90;;;;;;5090799;28;20180;-68
2021/04/08 00:37:46;;;;;;;12.50;6.67;;;2.10;99.90;;;;;;5091528;28;20229;-68
2021/04/08 00:40:14;;;;;;;8.70;7.10;;;2.10;99.90;;;;;;5103773;28;20453;-68
2021/04/08 00:42:40;;;;;;;7.40;6.70;;;2.00;99.90;;;;;;5091963;28;20218;-68
2021/04/08 00:45:07;;;;;;;7.93;6.77;;;2.00;99.90;;;;;;5109733;28;20505;-68
2021/04/08 00:47:33;;;;;;;13.13;7.60;;;2.00;99.90;;;;;;5095608;28;20456;-68
2021/04/08 00:49:59;;;;;;;7.03;6.33;;;2.00;99.90;;;;;;5102269;28;20450;-68
2021/04/08 00:52:25;;;;;;;8.03;6.90;;;2.00;99.90;;;;;;5091179;28;20541;-68
2021/04/08 00:54:51;;;;;;;11.00;7.83;;;2.00;99.90;;;;;;5099295;28;20195;-68
2021/04/08 00:57:17;;;;;;;7.90;6.77;;;2.00;99.90;;;;;;5097189;28;20568;-68
2021/04/08 00:59:43;;;;;;;8.73;6.97;;;2.00;99.90;;;;;;5092774;28;20550;-68
2021/04/08 01:02:09;;;;;;;9.80;8.30;;;2.00;99.90;;;;;;5091607;28;20419;-68
2021/04/08 01:04:36;;;;;;;9.23;6.70;;;2.00;99.90;;;;;;5099441;28;20632;-69
2021/04/08 01:07:02;;;;;;;8.43;6.93;;;2.00;99.90;;;;;;5096856;28;20434;-68
2021/04/08 01:09:28;;;;;;;8.70;7.80;;;2.00;99.90;;;;;;5094746;28;20886;-68
2021/04/08 01:11:53;;;;;;;12.30;8.30;;;1.90;99.90;;;;;;5106865;28;20434;-68
2021/04/08 01:14:19;;;;;;;11.47;7.83;;;1.90;99.90;;;;;;5090999;28;20207;-68
2021/04/08 01:16:48;;;;;;;8.53;7.63;;;2.00;99.90;;;;;;5104106;28;20185;-68
2021/04/08 01:19:34;;;;;;;10.40;7.40;;;2.00;99.90;;;;;;5102405;28;20850;-67
2021/04/08 01:22:17;;;;;;;12.90;8.20;;;2.00;99.90;;;;;;5095013;28;20434;-68
2021/04/08 01:25:15;;;;;;;11.63;7.87;;;2.00;99.90;;;;;;5095643;28;20936;-68
2021/04/08 01:28:09;;;;;;;11.90;7.83;;;2.00;99.90;;;;;;5102817;28;20432;-68
2021/04/08 01:30:53;;;;;;;11.73;7.93;;;2.00;99.90;;;;;;5098250;28;20481;-68
2021/04/08 01:33:32;;;;;;;8.47;7.67;;;2.00;99.90;;;;;;5090551;28;20502;-68
2021/04/08 01:36:23;;;;;;;8.73;7.77;;;2.10;99.90;;;;;;5099683;28;20441;-68
2021/04/08 01:38:57;;;;;;;12.30;9.40;;;2.10;99.90;;;;;;5086239;28;20491;-68
2021/04/08 01:41:24;;;;;;;8.90;6.80;;;2.20;99.90;;;;;;5110371;28;20767;-68
2021/04/08 01:43:54;;;;;;;9.70;8.30;;;2.10;99.90;;;;;;5097923;28;20430;-68
2021/04/08 01:46:23;;;;;;;11.10;8.23;;;2.20;99.90;;;;;;5097495;28;21047;-68
2021/04/08 01:48:55;;;;;;;10.67;7.23;;;2.30;99.90;;;;;;5099341;28;20438;-68
2021/04/08 01:51:23;;;;;;;12.57;7.47;;;2.30;99.90;;;;;;5098669;28;20488;-68
2021/04/08 01:53:54;;;;;;;8.50;6.03;;;2.30;99.90;;;;;;5102852;28;20457;-68
2021/04/08 01:56:23;;;;;;;9.07;6.03;;;2.40;99.90;;;;;;5106835;28;20429;-68
2021/04/08 01:58:49;;;;;;;9.70;7.83;;;2.30;99.90;;;;;;5096823;28;20430;-68
2021/04/08 02:01:19;;;;;;;7.37;6.60;;;2.40;99.90;;;;;;5096588;28;20492;-68
2021/04/08 02:03:46;;;;;;;6.10;5.50;;;2.40;99.90;;;;;;5110221;28;20429;-68
2021/04/08 02:06:13;;;;;;;6.10;4.50;;;2.50;99.90;;;;;;5105399;28;20898;-68
2021/04/08 02:08:41;;;;;;;5.60;4.43;;;2.50;99.90;;;;;;5102700;28;20452;-68
2021/04/08 02:11:11;;;;;;;5.70;5.20;;;2.50;99.90;;;;;;5102624;28;20479;-68
2021/04/08 02:13:38;;;;;;;5.20;4.70;;;2.60;99.90;;;;;;5097928;28;20613;-68
2021/04/08 02:16:07;;;;;;;4.60;4.20;;;2.70;99.90;;;;;;5104653;28;20464;-68
2021/04/08 02:18:35;;;;;;;6.90;4.67;;;2.70;99.90;;;;;;5108422;28;20426;-68
2021/04/08 02:21:02;;;;;;;6.67;4.70;;;2.70;99.90;;;;;;5090845;28;20871;-68
2021/04/08 02:23:31;;;;;;;6.60;4.50;;;2.80;99.90;;;;;;5102460;28;20882;-68
2021/04/08 02:25:58;;;;;;;7.00;5.00;;;2.70;99.90;;;;;;5091838;28;20429;-68
2021/04/08 02:28:26;;;;;;;5.50;4.53;;;2.70;99.90;;;;;;5107797;28;20429;-68
2021/04/08 02:30:53;;;;;;;5.83;4.27;;;2.70;99.90;;;;;;5097906;28;20975;-68
2021/04/08 02:33:24;;;;;;;4.50;4.10;;;2.60;99.90;;;;;;5102042;28;20962;-68
2021/04/08 02:35:51;;;;;;;4.70;3.70;;;2.60;99.90;;;;;;5111669;28;20521;-68
2021/04/08 02:38:22;;;;;;;4.70;4.27;;;2.50;99.90;;;;;;5094452;28;20438;-68
2021/04/08 02:40:47;;;;;;;4.13;3.60;;;2.60;99.90;;;;;;5108725;28;20532;-68
2021/04/08 02:43:13;;;;;;;6.90;3.90;;;2.50;99.90;;;;;;5108644;28;20509;-68
2021/04/08 02:45:40;;;;;;;5.37;3.50;;;2.50;99.90;;;;;;5095998;28;20193;-68
2021/04/08 02:48:08;;;;;;;7.03;4.23;;;2.40;99.90;;;;;;5095372;28;20438;-69
2021/04/08 02:50:34;;;;;;;3.93;3.53;;;2.40;99.90;;;;;;5110265;28;20449;-68
2021/04/08 02:53:11;;;;;;;4.33;3.93;;;2.40;99.90;;;;;;5093604;28;20499;-68
2021/04/08 02:55:42;;;;;;;7.67;4.10;;;2.40;99.90;;;;;;5105841;28;20172;-68
2021/04/08 02:58:12;;;;;;;5.27;3.70;;;2.30;99.90;;;;;;5104598;28;20434;-68
2021/04/08 03:00:47;;;;;;;7.53;4.23;;;2.30;99.90;;;;;;5100835;28;20450;-68
2021/04/08 03:03:15;;;;;;;6.17;4.13;;;2.30;99.90;;;;;;5109060;28;20460;-68
2021/04/08 03:05:43;;;;;;;4.77;3.13;;;2.30;99.90;;;;;;5105962;28;20484;-68
2021/04/08 03:08:12;;;;;;;5.10;3.70;;;2.30;99.90;;;;;;5096034;28;20426;-68
2021/04/08 03:10:40;;;;;;;5.53;4.00;;;2.30;99.90;;;;;;5112272;28;20500;-68
2021/04/08 03:13:07;;;;;;;5.37;3.70;;;2.30;99.90;;;;;;5113392;28;20492;-68
2021/04/08 03:15:35;;;;;;;3.43;3.13;;;2.40;99.90;;;;;;5095687;28;20434;-68
2021/04/08 03:18:06;;;;;;;4.40;3.87;;;2.40;99.90;;;;;;5094581;28;20426;-68
2021/04/08 03:20:33;;;;;;;5.20;4.00;;;2.30;99.90;;;;;;5106940;28;20484;-68
2021/04/08 03:23:03;;;;;;;3.93;3.57;;;2.40;99.90;;;;;;5093410;28;20430;-68
2021/04/08 03:25:29;;;;;;;4.03;3.73;;;2.40;99.90;;;;;;5095717;28;20519;-69
2021/04/08 03:27:56;;;;;;;6.37;3.97;;;2.40;99.90;;;;;;5092992;28;20943;-69
2021/04/08 03:30:24;;;;;;;8.73;4.50;;;2.50;99.90;;;;;;5109899;28;20816;-69
2021/04/08 03:32:50;;;;;;;6.03;4.90;;;2.60;99.90;;;;;;5098203;28;20453;-68
2021/04/08 03:35:16;;;;;;;7.60;3.13;;;2.60;99.90;;;;;;5112300;28;20492;-68
2021/04/08 03:37:42;;;;;;;8.47;3.70;;;2.70;99.90;;;;;;5111733;28;20172;-68
2021/04/08 03:40:09;;;;;;;3.80;3.13;;;2.70;99.90;;;;;;5092308;28;20505;-68
2021/04/08 03:42:35;;;;;;;4.20;3.13;;;2.80;99.90;;;;;;5092562;28;20445;-68
2021/04/08 03:45:01;;;;;;;5.10;3.50;;;2.80;99.90;;;;;;5111904;28;20502;-68
2021/04/08 03:47:27;;;;;;;5.27;3.60;;;2.70;99.90;;;;;;5104483;28;20434;-68
2021/04/08 03:49:53;;;;;;;4.30;3.60;;;2.80;99.90;;;;;;5098803;28;20545;-68
2021/04/08 03:52:20;;;;;;;6.73;3.30;;;2.80;99.90;;;;;;5108289;28;20498;-68
2021/04/08 03:54:49;;;;;;;3.50;3.17;;;2.80;99.90;;;;;;5099826;28;20977;-68
2021/04/08 03:57:17;;;;;;;4.87;3.30;;;2.80;99.90;;;;;;5107001;28;20776;-68
2021/04/08 03:59:44;;;;;;;4.60;3.20;;;2.90;99.90;;;;;;5100530;28;20457;-68
2021/04/08 04:02:12;;;;;;;4.77;3.33;;;2.90;99.90;;;;;;5109487;28;20968;-68
2021/04/08 04:04:38;;;;;;;4.27;3.83;;;2.90;99.90;;;;;;5093896;28;20579;-68
2021/04/08 04:07:05;;;;;;;4.10;3.70;;;2.90;99.90;;;;;;5105715;28;20425;-68
2021/04/08 04:09:31;;;;;;;6.20;3.60;;;2.90;99.90;;;;;;5108963;28;20456;-68
2021/04/08 04:11:57;;;;;;;6.63;3.20;;;2.90;99.90;;;;;;5096216;28;20431;-68
2021/04/08 04:14:27;;;;;;;3.93;3.60;;;2.80;99.90;;;;;;5105198;28;20993;-68
2021/04/08 04:16:56;;;;;;;11.03;4.10;;;2.80;99.90;;;;;;5098029;28;20422;-68
2021/04/08 04:19:24;;;;;;;4.73;4.20;;;2.70;99.90;;;;;;5092283;28;20452;-68
2021/04/08 04:21:50;;;;;;;3.73;3.43;;;2.70;99.90;;;;;;5099275;28;20780;-68
2021/04/08 04:24:16;;;;;;;5.83;4.00;;;2.60;99.90;;;;;;5085122;28;20562;-68
2021/04/08 04:26:42;;;;;;;5.13;3.73;;;2.60;99.90;;;;;;5096915;28;20430;-68
2021/04/08 04:29:07;;;;;;;4.13;3.40;;;2.60;99.90;;;;;;5099845;28;20168;-68
2021/04/08 04:31:36;;;;;;;6.67;4.60;;;2.60;99.90;;;;;;5093552;28;20234;-68
2021/04/08 04:34:06;;;;;;;5.27;4.63;;;2.60;99.90;;;;;;5109632;28;20238;-68
2021/04/08 04:36:33;;;;;;;4.43;4.03;;;2.60;99.90;;;;;;5097075;28;20429;-68
2021/04/08 04:38:58;;;;;;;5.77;4.30;;;2.50;99.90;;;;;;5107012;28;20473;-69
2021/04/08 04:41:24;;;;;;;5.13;4.00;;;2.60;99.90;;;;;;5098721;28;20849;-68
2021/04/08 04:43:49;;;;;;;4.90;4.03;;;2.50;99.90;;;;;;5091554;28;20172;-68
2021/04/08 04:46:15;;;;;;;4.00;3.33;;;2.40;99.90;;;;;;5110203;28;20194;-68
2021/04/08 04:48:41;;;;;;;11.30;4.00;;;2.50;99.90;;;;;;5099210;28;20176;-68
2021/04/08 04:51:06;;;;;;;5.00;3.87;;;2.40;99.90;;;;;;5092967;28;20192;-68
2021/04/08 04:53:32;;;;;;;7.30;4.57;;;2.40;99.90;;;;;;5090255;28;20219;-68
2021/04/08 04:55:58;;;;;;;4.20;3.80;;;2.30;99.90;;;;;;5091191;28;20181;-68
2021/04/08 04:58:24;;;;;;;8.93;3.90;;;2.30;99.90;;;;;;5091160;28;20184;-68
2021/04/08 05:00:49;;;;;;;6.30;4.10;;;2.30;99.90;;;;;;5096983;28;20978;-68
2021/04/08 05:03:15;;;;;;;9.13;4.30;;;2.30;99.90;;;;;;5101290;28;20164;-68
2021/04/08 05:05:40;;;;;;;5.07;4.10;;;2.30;99.90;;;;;;5104364;27;20172;-68
2021/04/08 05:08:06;;;;;;;5.60;4.10;;;2.40;99.90;;;;;;5124147;27;20207;-68
2021/04/08 05:10:32;;;;;;;4.50;3.73;;;2.40;99.90;;;;;;5090566;28;20216;-68
2021/04/08 05:12:57;;;;;;;5.80;4.40;;;2.50;99.90;;;;;;5100998;27;20180;-68
2021/04/08 05:15:23;;;;;;;7.40;4.87;;;2.60;99.90;;;;;;5107687;28;20707;-68
2021/04/08 05:17:48;;;;;;;5.10;4.60;;;2.70;99.90;;;;;;5115176;27;20257;-68
2021/04/08 05:20:14;;;;;;;4.67;4.13;;;2.60;99.90;;;;;;5111374;28;20535;-68
2021/04/08 05:22:39;;;;;;;5.00;4.30;;;2.60;99.90;;;;;;5105376;28;20222;-68
2021/04/08 05:25:06;;;;;;;9.20;4.50;;;2.60;99.90;;;;;;5100364;28;20179;-68
2021/04/08 05:27:31;;;;;;;5.73;4.17;;;2.60;99.90;;;;;;5123733;28;20207;-67
2021/04/08 05:29:57;;;;;;;9.60;6.00;;;2.70;99.90;;;;;;5109677;28;20492;-68
2021/04/08 05:32:23;;;;;;;5.40;4.67;;;2.70;99.90;;;;;;5095907;28;20191;-68
2021/04/08 05:34:51;;;;;;;7.70;4.90;;;2.80;99.90;;;;;;5104990;28;20196;-68
2021/04/08 05:37:17;;;;;;;7.93;4.20;;;2.90;99.90;;;;;;5096868;28;20485;-67
2021/04/08 05:39:42;;;;;;;5.50;3.70;;;2.90;99.90;;;;;;5106026;28;20449;-68
2021/04/08 05:42:09;;;;;;;7.00;3.40;;;2.90;99.90;;;;;;5111049;28;20172;-68
2021/04/08 05:44:34;;;;;;;5.47;3.87;;;3.00;99.90;;;;;;5095224;28;20184;-68
2021/04/08 05:47:00;;;;;;;4.20;3.80;;;3.10;99.90;;;;;;5107767;28;20428;-68
2021/04/08 05:49:26;;;;;;;7.07;5.13;;;3.20;99.90;;;;;;5090479;28;20203;-68
2021/04/08 05:51:51;;;;;;;7.33;4.90;;;3.20;99.90;;;;;;5107564;28;20520;-68
2021/04/08 05:54:17;;;;;;;4.87;3.17;;;3.30;99.90;;;;;;5110889;28;20194;-68
2021/04/08 05:56:42;;;;;;;5.87;4.67;;;3.50;99.90;;;;;;5102692;28;20578;-68
2021/04/08 05:59:08;;;;;;;4.90;3.10;;;3.50;99.90;;;;;;5098901;28;20645;-68
2021/04/08 06:01:34;;;;;;;6.17;3.07;;;3.60;99.90;;;;;;5108911;28;20182;-68
2021/04/08 06:03:59;;;;;;;6.47;4.73;;;3.60;99.90;;;;;;5114408;28;20172;-68
2021/04/08 06:06:25;;;;;;;4.90;3.60;;;3.60;99.90;;;;;;5106685;28;20178;-68
2021/04/08 06:08:50;;;;;;;4.10;3.70;;;3.60;99.90;;;;;;5109794;28;20175;-68
2021/04/08 06:11:16;;;;;;;8.40;4.90;;;3.70;99.90;;;;;;5097993;28;20199;-68
2021/04/08 06:13:42;;;;;;;8.37;4.10;;;3.80;99.90;;;;;;5094624;28;20207;-68
2021/04/08 06:16:07;;;;;;;5.57;3.70;;;3.80;99.90;;;;;;5104159;28;20217;-68
2021/04/08 06:18:33;;;;;;;7.03;4.50;;;3.70;99.90;;;;;;5105403;28;20180;-68
2021/04/08 06:20:58;;;;;;;10.37;5.37;;;3.70;99.90;;;;;;5103644;28;20243;-68
2021/04/08 06:23:24;;;;;;;9.13;4.30;;;3.80;99.90;;;;;;5094224;28;20184;-68
2021/04/08 06:25:50;;;;;;;6.60;3.97;;;3.90;99.90;;;;;;5110939;28;20175;-68
2021/04/08 06:28:15;;;;;;;5.03;4.00;;;4.00;99.90;;;;;;5099356;28;20246;-68
2021/04/08 06:30:44;;;;;;;6.87;4.70;;;4.30;99.90;;;;;;5098891;28;20297;-69
2021/04/08 06:33:10;;;;;;;6.17;4.67;;;4.70;99.90;;;;;;5092623;28;20657;-68
2021/04/08 06:35:36;;;;;;;7.23;4.90;;;5.00;99.90;;;;;;5095436;28;20418;-68
2021/04/08 06:38:02;;;;;;;5.43;4.67;;;5.10;99.90;;;;;;5098111;28;20172;-68
2021/04/08 06:40:27;;;;;;;6.87;4.70;;;5.20;99.90;;;;;;5096613;28;20298;-68
2021/04/08 06:42:54;;;;;;;10.00;5.83;;;5.20;99.90;;;;;;5107065;28;20549;-68
2021/04/08 06:45:23;;;;;;;8.33;4.80;;;5.10;99.90;;;;;;5106424;28;20191;-68
2021/04/08 06:48:13;;;;;;;6.60;4.93;;;5.20;99.90;;;;;;5101205;27;20499;-67
2021/04/08 06:50:42;;;;;;;5.03;4.53;;;5.20;99.90;;;;;;5105889;28;20536;-68
2021/04/08 06:53:08;;;;;;;7.37;5.10;;;4.90;99.90;;;;;;5107727;28;20429;-68
2021/04/08 06:55:34;;;;;;;7.17;5.60;;;5.00;99.90;;;;;;5104783;28;20437;-67
2021/04/08 06:58:03;;;;;;;7.60;5.60;;;5.10;99.90;;;;;;5102318;28;20453;-68
2021/04/08 07:00:29;;;;;;;6.57;5.97;;;5.30;99.90;;;;;;5098499;28;20450;-69
2021/04/08 07:02:55;;;;;;;7.37;6.03;;;5.50;99.90;;;;;;5096595;28;20890;-67
2021/04/08 07:05:20;;;;;;;11.23;5.50;;;5.50;99.90;;;;;;5094353;28;20434;-69
2021/04/08 07:07:46;;;;;;;7.07;6.23;;;5.70;99.90;;;;;;5105759;28;20182;-68
2021/04/08 07:10:12;;;;;;;8.80;6.40;;;6.00;99.90;;;;;;5100281;28;20199;-68
2021/04/08 07:12:38;;;;;;;8.83;6.30;;;6.00;99.90;;;;;;5108919;28;20205;-69
2021/04/08 07:15:06;;;;;;;6.93;6.33;;;5.50;99.90;;;;;;5101853;28;20462;-68
2021/04/08 07:17:32;;;;;;;7.43;6.77;;;5.70;99.90;;;;;;5096428;28;20519;-68
2021/04/08 07:19:58;;;;;;;9.43;7.73;;;6.00;99.90;;;;;;5107507;28;20499;-69
2021/04/08 07:22:24;;;;;;;7.60;6.43;;;6.10;99.90;;;;;;5101468;28;20423;-69
2021/04/08 07:24:50;;;;;;;7.93;7.20;;;6.20;99.90;;;;;;5095311;28;20431;-69
2021/04/08 07:27:19;;;;;;;9.30;6.20;;;6.30;99.90;;;;;;5105146;28;20437;-69
2021/04/08 07:29:51;;;;;;;9.03;6.27;;;6.40;99.90;;;;;;5108248;28;20502;-69
2021/04/08 07:32:23;;;;;;;5.93;5.20;;;6.70;99.90;;;;;;5102246;28;20435;-68
2021/04/08 07:35:10;;;;;;;7.10;6.40;;;7.10;99.90;;;;;;5100840;28;20465;-68
2021/04/08 07:37:36;;;;;;;5.10;4.70;;;7.20;99.90;;;;;;5084640;28;20619;-69
2021/04/08 07:40:17;;;;;;;7.30;4.60;;;7.80;99.90;;;;;;5105306;28;20444;-68
2021/04/08 07:42:43;;;;;;;6.27;4.53;;;7.90;99.90;;;;;;5098725;28;20939;-68
2021/04/08 07:45:09;;;;;;;12.07;4.73;;;8.10;99.90;;;;;;5103485;28;20452;-69
2021/04/08 07:47:40;;;;;;;8.53;4.60;;;8.10;99.90;;;;;;5095568;28;20429;-69
2021/04/08 07:50:05;;;;;;;6.07;4.60;;;7.40;99.90;;;;;;5092902;28;20820;-69
2021/04/08 07:52:36;;;;;;;7.43;4.70;;;7.20;99.90;;;;;;5098932;28;20430;-69
2021/04/08 07:55:02;;;;;;;8.10;5.10;;;6.90;99.90;;;;;;5097145;28;20207;-69
2021/04/08 07:57:28;;;;;;;4.77;4.37;;;6.90;99.90;;;;;;5093775;28;20432;-69
2021/04/08 07:59:55;;;;;;;7.43;5.73;;;7.00;99.90;;;;;;5101372;28;20192;-69
2021/04/08 08:02:26;;;;;;;6.10;5.50;;;6.90;99.90;;;;;;5103069;28;20442;-69
2021/04/08 08:05:21;;;;;;;7.60;5.33;;;6.90;99.90;;;;;;5099539;28;20429;-68
2021/04/08 08:07:47;;;;;;;10.83;6.73;;;7.00;99.90;;;;;;5095098;28;20473;-68
2021/04/08 08:10:19;;;;;;;5.73;5.23;;;7.10;99.90;;;;;;5098012;28;20461;-68
2021/04/08 08:12:45;;;;;;;5.57;4.43;;;7.40;99.90;;;;;;5088142;28;20271;-69
2021/04/08 08:15:18;;;;;;;6.13;5.33;;;7.70;99.90;;;;;;5095300;28;20885;-69
2021/04/08 08:17:44;;;;;;;7.17;5.03;;;8.00;99.90;;;;;;5094563;28;20534;-69
2021/04/08 08:20:10;;;;;;;12.53;5.53;;;8.10;99.90;;;;;;5090466;28;20468;-69
2021/04/08 08:22:38;;;;;;;8.07;5.23;;;8.10;99.90;;;;;;5098548;28;20172;-69
2021/04/08 08:25:04;;;;;;;7.20;5.73;;;8.00;99.90;;;;;;5092245;28;20437;-69
2021/04/08 08:27:43;;;;;;;13.07;7.63;;;8.10;99.90;;;;;;5093663;28;20456;-68
2021/04/08 08:30:15;;;;;;;6.50;5.60;;;8.10;99.90;;;;;;5104462;28;20453;-68
2021/04/08 08:33:03;;;;;;;6.43;5.70;;;7.80;99.90;;;;;;5100902;28;20433;-68
2021/04/08 08:35:28;;;;;;;5.77;5.27;;;8.10;99.90;;;;;;5102457;28;20475;-69
2021/04/08 08:38:03;;;;;;;6.83;6.00;;;7.70;98.60;;;;;;5098477;28;20956;-69
2021/04/08 08:40:29;;;;;;;7.23;5.40;;;7.80;98.60;;;;;;5102806;28;20203;-69
2021/04/08 08:42:54;;;;;;;8.57;6.30;;;7.60;99.90;;;;;;5105594;28;20942;-69
2021/04/08 08:45:20;;;;;;;7.13;5.47;;;8.10;99.90;;;;;;5097948;28;20214;-69
2021/04/08 08:47:50;;;;;;;5.30;4.80;;;8.20;98.10;;;;;;5099439;28;20183;-69
2021/04/08 08:50:17;;;;;;;5.37;4.90;;;8.10;97.40;;;;;;5104051;28;20452;-68
2021/04/08 08:52:44;;;;;;;6.77;4.63;;;8.30;96.80;;;;;;5097148;28;20436;-69
2021/04/08 08:55:13;;;;;;;5.37;4.87;;;8.50;95.10;;;;;;5097338;28;20464;-69
2021/04/08 08:57:40;;;;;;;5.63;5.13;;;8.30;95.40;;;;;;5106159;28;20855;-68
2021/04/08 09:00:07;;;;;;;6.40;4.83;;;8.30;96.00;;;;;;5100327;28;20495;-69
2021/04/08 09:02:35;;;;;;;5.33;4.83;;;8.10;94.80;;;;;;5096593;28;20433;-69
2021/04/08 09:05:01;;;;;;;7.00;5.50;;;8.30;94.40;;;;;;5091718;28;20430;-69
2021/04/08 09:07:28;;;;;;;7.77;5.27;;;8.70;94.70;;;;;;5102784;28;20432;-69
2021/04/08 09:10:01;;;;;;;7.07;4.90;;;9.50;92.40;;;;;;5106598;28;20499;-69
2021/04/08 09:12:27;;;;;;;5.40;4.90;;;10.10;91.40;;;;;;5099875;28;20791;-69
2021/04/08 09:14:54;;;;;;;6.30;4.50;;;9.90;85.40;;;;;;5101686;28;20534;-69
2021/04/08 09:17:40;;;;;;;6.30;5.70;;;10.10;90.10;;;;;;5100535;28;20198;-69
2021/04/08 09:20:18;;;;;;;5.07;4.57;;;10.40;86.40;;;;;;5106694;28;20439;-68
2021/04/08 09:22:56;;;;;;;4.93;4.37;;;10.80;82.80;;;;;;5104554;28;20453;-69
2021/04/08 09:25:30;;;;;;;5.37;4.87;;;10.20;80.70;;;;;;5104270;28;20416;-69
2021/04/08 09:27:59;;;;;;;4.47;4.03;;;9.70;83.30;;;;;;5102422;28;20418;-69
2021/04/08 09:30:53;;;;;;;6.10;4.97;;;9.40;83.80;;;;;;5105818;28;20445;-69
2021/04/08 09:33:42;;;;;;;6.80;4.47;;;8.80;86.40;;;;;;5094330;28;20787;-69
2021/04/08 09:36:20;;;;;;;7.20;5.30;;;8.30;89.10;;;;;;5104561;28;20428;-68
2021/04/08 09:38:55;;;;;;;5.23;4.73;;;7.90;90.20;;;;;;5104618;28;20421;-69
2021/04/08 09:41:45;;;;;;;5.17;4.60;;;7.80;91.70;;;;;;5106376;28;20444;-69
2021/04/08 09:44:12;;;;;;;6.40;4.33;;;7.60;93.00;;;;;;5105945;27;20436;-69
2021/04/08 09:46:43;;;;;;;5.83;4.23;;;7.70;93.20;;;;;;5102063;28;20439;-69
2021/04/08 09:49:10;;;;;;;4.40;3.80;;;7.80;92.90;;;;;;5103562;28;20453;-69
2021/04/08 09:51:44;;;;;;;5.80;4.53;;;8.10;92.90;;;;;;5106046;28;20421;-69
2021/04/08 09:54:15;;;;;;;15.57;5.13;;;8.00;92.30;;;;;;5103940;28;20452;-68
2021/04/08 09:56:50;;;;;;;5.30;3.97;;;8.00;92.40;;;;;;5101535;28;20429;-69
2021/04/08 09:59:18;;;;;;;6.30;4.07;;;8.10;92.60;;;;;;5111352;28;20425;-69
2021/04/08 10:01:45;;;;;;;10.23;5.40;;;7.90;91.50;;;;;;5107798;28;20478;-68
2021/04/08 10:04:16;;;;;;;7.83;4.97;;;8.00;91.60;;;;;;5105463;28;20524;-72
2021/04/08 10:06:43;;;;;;;6.37;4.30;;;8.00;91.70;;;;;;5105184;28;20781;-70
2021/04/08 10:09:14;;;;;;;5.10;4.43;;;8.20;91.80;;;;;;5096485;28;20445;-71
2021/04/08 10:11:40;;;;;;;7.20;4.70;;;8.10;92.00;;;;;;5104906;28;20509;-70
2021/04/08 10:14:20;;;;;;;4.50;4.10;;;8.20;92.50;;;;;;5109911;28;20535;-69
2021/04/08 10:17:11;;;;;;;4.57;4.10;;;8.60;92.60;;;;;;5102296;28;20812;-69
2021/04/08 10:19:42;;;;;;;6.63;5.00;;;9.10;91.50;;;;;;5097333;28;20446;-68
2021/04/08 10:22:10;;;;;;;6.40;4.53;;;9.30;90.90;;;;;;5109498;28;20454;-68
2021/04/08 10:24:38;;;;;;;4.93;3.77;;;9.10;89.60;;;;;;5109134;28;20417;-69
2021/04/08 10:27:13;;;;;;;5.33;4.10;;;9.00;91.00;;;;;;5106835;28;20435;-69
2021/04/08 10:29:38;;;;;;;11.67;10.27;;;8.70;91.00;;;;;;5098381;28;20465;-67
2021/04/08 10:32:04;;;;;;;4.50;4.10;;;8.70;91.80;;;;;;5102126;28;20850;-67
2021/04/08 10:34:39;;;;;;;12.67;8.60;;;8.70;91.60;;;;;;5108900;28;20270;-66
2021/04/08 10:37:06;;;;;;;6.43;4.13;;;8.90;92.20;;;;;;5105754;27;20436;-67
2021/04/08 10:39:35;;;;;;;6.87;4.67;;;9.80;87.70;;;;;;5101692;28;20444;-68
2021/04/08 10:42:02;;;;;;;6.90;4.70;;;9.90;86.80;;;;;;5103876;28;20417;-68
2021/04/08 10:44:34;;;;;;;5.13;4.63;;;9.50;86.40;;;;;;5104307;28;20442;-67
2021/04/08 10:47:19;;;;;;;7.93;4.07;;;9.90;85.50;;;;;;5099898;28;20451;-67
2021/04/08 10:49:51;;;;;;;6.30;5.13;;;11.80;81.40;;;;;;5094401;28;20445;-68
2021/04/08 10:52:17;;;;;;;4.97;4.57;;;14.10;73.10;;;;;;5097015;28;20434;-68
2021/04/08 10:54:47;;;;;;;4.87;4.53;;;13.70;65.60;;;;;;5097774;28;20540;-68
2021/04/08 10:57:15;;;;;;;6.00;5.50;;;12.80;63.20;;;;;;5099053;28;20485;-68
2021/04/08 10:59:43;;;;;;;5.30;4.80;;;12.20;64.60;;;;;;5105432;28;20528;-68
2021/04/08 11:02:24;;;;;;;6.13;5.03;;;11.70;66.10;;;;;;5105517;28;20465;-67
2021/04/08 11:04:54;;;;;;;5.33;3.90;;;11.30;65.60;;;;;;5109756;28;20432;-68
2021/04/08 11:07:21;;;;;;;5.90;4.60;;;10.90;67.20;;;;;;5100953;28;20429;-68
2021/04/08 11:09:47;;;;;;;5.70;4.33;;;10.60;66.70;;;;;;5092691;28;20491;-67
2021/04/08 11:12:22;;;;;;;5.30;4.80;;;10.40;68.10;;;;;;5098860;28;20446;-67
2021/04/08 11:14:52;;;;;;;7.23;4.50;;;10.10;66.50;;;;;;5097839;28;20530;-68
2021/04/08 11:17:19;;;;;;;6.23;4.90;;;10.20;68.10;;;;;;5101974;28;21002;-67
2021/04/08 11:19:45;;;;;;;6.83;5.40;;;10.20;67.40;;;;;;5108174;28;20453;-67
2021/04/08 11:22:17;;;;;;;7.87;4.43;;;10.00;67.70;;;;;;5100072;28;20981;-67
2021/04/08 11:24:45;;;;;;;5.30;4.80;;;10.20;70.60;;;;;;5102668;28;20438;-67
2021/04/08 11:27:11;;;;;;;7.77;4.63;;;10.40;67.50;;;;;;5099962;28;20437;-68
2021/04/08 11:29:38;;;;;;;6.90;5.53;;;10.30;65.70;;;;;;5100634;28;20453;-67
2021/04/08 11:32:10;;;;;;;6.53;4.27;;;10.20;67.50;;;;;;5103140;28;20837;-68
2021/04/08 11:34:50;;;;;;;5.20;4.40;;;10.30;68.20;;;;;;5102975;28;21065;-68
2021/04/08 11:37:18;;;;;;;8.97;5.10;;;10.30;67.10;;;;;;5102618;28;20516;-68
2021/04/08 11:39:45;;;;;;;9.03;4.63;;;10.10;67.50;;;;;;5097179;28;20454;-68
2021/04/08 11:42:19;;;;;;;5.83;4.50;;;10.40;67.80;;;;;;5101868;28;20517;-68
2021/04/08 11:44:46;;;;;;;5.50;4.50;;;10.50;67.30;;;;;;5093011;28;20446;-67
2021/04/08 11:47:16;;;;;;;7.13;4.67;;;10.70;66.10;;;;;;5092844;28;20853;-68
2021/04/08 11:49:50;;;;;;;10.27;4.80;;;10.40;66.30;;;;;;5108195;28;20826;-67
2021/04/08 11:52:22;;;;;;;4.90;4.50;;;10.50;67.70;;;;;;5100104;28;20430;-68
2021/04/08 11:54:57;;;;;;;6.00;4.70;;;11.40;63.40;;;;;;5094359;28;20963;-68
2021/04/08 11:57:23;;;;;;;6.17;4.23;;;11.50;64.40;;;;;;5092238;28;20456;-68
2021/04/08 11:59:48;;;;;;;4.53;4.07;;;11.10;65.10;;;;;;5103737;28;20985;-68
2021/04/08 12:02:28;;;;;;;5.30;4.63;;;10.50;65.90;;;;;;5099474;28;20464;-68
2021/04/08 12:04:53;;;;;;;4.27;3.87;;;10.30;66.10;;;;;;5094450;28;20176;-68
2021/04/08 12:07:19;;;;;;;5.47;3.80;;;10.10;68.10;;;;;;5101123;28;20440;-68
2021/04/08 12:09:46;;;;;;;5.97;4.80;;;10.20;67.30;;;;;;5101537;28;20204;-68
2021/04/08 12:12:12;;;;;;;6.47;3.80;;;9.80;69.50;;;;;;5094014;28;20266;-68
2021/04/08 12:14:54;;;;;;;7.10;4.40;;;9.60;70.90;;;;;;5090860;28;20511;-68
2021/04/08 12:17:19;;;;;;;6.43;3.80;;;9.50;72.70;;;;;;5095836;28;20466;-68
2021/04/08 12:19:45;;;;;;;6.33;5.70;;;9.40;72.20;;;;;;5103917;28;20541;-68
2021/04/08 12:22:12;;;;;;;9.43;5.00;;;9.30;73.20;;;;;;5103164;28;20178;-68
2021/04/08 12:24:39;;;;;;;9.50;4.57;;;9.30;73.30;;;;;;5098153;28;20186;-68
2021/04/08 12:27:20;;;;;;;4.33;4.00;;;9.10;71.80;;;;;;5101902;28;20425;-68
2021/04/08 12:29:46;;;;;;;5.63;3.90;;;9.10;74.10;;;;;;5105728;28;20457;-68
2021/04/08 12:32:12;;;;;;;6.57;4.23;;;9.30;72.30;;;;;;5105395;28;20440;-68
2021/04/08 12:34:38;;;;;;;5.40;4.20;;;9.50;72.50;;;;;;5104299;28;20466;-68
2021/04/08 12:37:03;;;;;;;6.10;3.47;;;9.70;71.80;;;;;;5104535;28;20175;-68
2021/04/08 12:39:29;;;;;;;4.80;4.30;;;9.70;72.80;;;;;;5102701;28;20192;-68
2021/04/08 12:41:55;;;;;;;4.13;3.73;;;10.40;70.60;;;;;;5103208;28;20259;-67
2021/04/08 12:44:21;;;;;;;6.53;4.33;;;10.60;67.10;;;;;;5095826;28;20206;-68
2021/04/08 12:46:46;;;;;;;6.67;4.00;;;11.10;65.80;;;;;;5100281;28;20425;-68
2021/04/08 12:49:12;;;;;;;6.73;4.23;;;12.00;65.60;;;;;;5099555;28;20168;-68
2021/04/08 12:51:38;;;;;;;6.33;4.00;;;15.30;59.00;;;;;;5101246;28;20266;-68
2021/04/08 12:54:03;;;;;;;5.83;4.10;;;17.30;52.10;;;;;;5106521;28;20219;-68
2021/04/08 12:56:29;;;;;;;4.77;4.37;;;17.50;48.90;;;;;;5105538;28;20176;-68
2021/04/08 12:58:55;;;;;;;7.70;4.40;;;16.40;46.60;;;;;;5096699;28;20438;-68
2021/04/08 13:01:20;;;;;;;6.00;4.43;;;14.50;47.80;;;;;;5098073;28;20615;-68
2021/04/08 13:03:46;;;;;;;4.20;3.57;;;13.40;50.20;;;;;;5099410;28;20585;-68